sensor_id;sensor_type;location;lat;lon;timestamp;pressure;altitude;pressure_sealevel;temperature
19061;BMP280;9663;48.996;8.334;2023-03-01T00:01:31;101234.59;;;5.06
19061;BMP280;9663;48.996;8.334;2023-03-01T00:03:58;101232.00;;;5.05
19061;BMP280;9663;48.996;8.334;2023-03-01T00:06:25;101227.72;;;5.02
19061;BMP280;9663;48.996;8.334;2023-03-01T00:08:52;101225.09;;;4.99
19061;BMP280;9663;48.996;8.334;2023-03-01T00:11:30;101230.06;;;4.98
19061;BMP280;9663;48.996;8.334;2023-03-01T00:13:59;101229.19;;;4.96
19061;BMP280;9663;48.996;8.334;2023-03-01T00:16:34;101226.59;;;4.94
19061;BMP280;9663;48.996;8.334;2023-03-01T00:19:00;101223.25;;;4.94
19061;BMP280;9663;48.996;8.334;2023-03-01T00:21:27;101230.75;;;4.92
19061;BMP280;9663;48.996;8.334;2023-03-01T00:23:54;101233.16;;;4.89
19061;BMP280;9663;48.996;8.334;2023-03-01T00:26:22;101234.75;;;4.87
19061;BMP280;9663;48.996;8.334;2023-03-01T00:28:52;101228.84;;;4.85
19061;BMP280;9663;48.996;8.334;2023-03-01T00:31:23;101223.75;;;4.84
19061;BMP280;9663;48.996;8.334;2023-03-01T00:33:53;101233.75;;;4.82
19061;BMP280;9663;48.996;8.334;2023-03-01T00:36:25;101233.66;;;4.79
19061;BMP280;9663;48.996;8.334;2023-03-01T00:38:51;101227.72;;;4.77
19061;BMP280;9663;48.996;8.334;2023-03-01T00:41:20;101224.31;;;4.75
19061;BMP280;9663;48.996;8.334;2023-03-01T00:43:46;101225.91;;;4.73
19061;BMP280;9663;48.996;8.334;2023-03-01T00:46:19;101226.72;;;4.72
19061;BMP280;9663;48.996;8.334;2023-03-01T00:48:46;101228.31;;;4.70
19061;BMP280;9663;48.996;8.334;2023-03-01T00:51:21;101226.50;;;4.66
19061;BMP280;9663;48.996;8.334;2023-03-01T00:53:51;101232.34;;;4.66
19061;BMP280;9663;48.996;8.334;2023-03-01T00:56:17;101232.22;;;4.63
19061;BMP280;9663;48.996;8.334;2023-03-01T00:58:43;101228.88;;;4.62
19061;BMP280;9663;48.996;8.334;2023-03-01T01:01:13;101225.47;;;4.62
19061;BMP280;9663;48.996;8.334;2023-03-01T01:03:51;101222.91;;;4.60
19061;BMP280;9663;48.996;8.334;2023-03-01T01:06:24;101225.41;;;4.59
19061;BMP280;9663;48.996;8.334;2023-03-01T01:08:52;101220.31;;;4.57
19061;BMP280;9663;48.996;8.334;2023-03-01T01:11:19;101230.44;;;4.59
19061;BMP280;9663;48.996;8.334;2023-03-01T01:13:47;101220.28;;;4.56
19061;BMP280;9663;48.996;8.334;2023-03-01T01:16:14;101217.75;;;4.56
19061;BMP280;9663;48.996;8.334;2023-03-01T01:18:40;101221.88;;;4.54
19061;BMP280;9663;48.996;8.334;2023-03-01T01:21:17;101220.16;;;4.53
19061;BMP280;9663;48.996;8.334;2023-03-01T01:23:45;101210.06;;;4.51
19061;BMP280;9663;48.996;8.334;2023-03-01T01:26:19;101219.31;;;4.52
19061;BMP280;9663;48.996;8.334;2023-03-01T01:28:47;101214.28;;;4.52
19061;BMP280;9663;48.996;8.334;2023-03-01T01:31:14;101205.81;;;4.50
19061;BMP280;9663;48.996;8.334;2023-03-01T01:33:39;101211.72;;;4.51
19061;BMP280;9663;48.996;8.334;2023-03-01T01:36:07;101201.66;;;4.51
19061;BMP280;9663;48.996;8.334;2023-03-01T01:38:34;101203.31;;;4.50
19061;BMP280;9663;48.996;8.334;2023-03-01T01:41:00;101200.84;;;4.52
19061;BMP280;9663;48.996;8.334;2023-03-01T01:43:31;101197.53;;;4.53
19061;BMP280;9663;48.996;8.334;2023-03-01T01:46:10;101194.25;;;4.54
19061;BMP280;9663;48.996;8.334;2023-03-01T01:48:45;101198.38;;;4.53
19061;BMP280;9663;48.996;8.334;2023-03-01T01:51:18;101195.03;;;4.53
19061;BMP280;9663;48.996;8.334;2023-03-01T01:53:51;101198.38;;;4.53
19061;BMP280;9663;48.996;8.334;2023-03-01T01:56:20;101191.72;;;4.54
19061;BMP280;9663;48.996;8.334;2023-03-01T01:58:47;101177.38;;;4.51
19061;BMP280;9663;48.996;8.334;2023-03-01T02:01:13;101184.91;;;4.51
19061;BMP280;9663;48.996;8.334;2023-03-01T02:03:42;101181.56;;;4.51
19061;BMP280;9663;48.996;8.334;2023-03-01T02:06:31;101179.00;;;4.49
19061;BMP280;9663;48.996;8.334;2023-03-01T02:09:03;101174.72;;;4.47
19061;BMP280;9663;48.996;8.334;2023-03-01T02:11:32;101173.06;;;4.47
19061;BMP280;9663;48.996;8.334;2023-03-01T02:13:58;101170.50;;;4.46
19061;BMP280;9663;48.996;8.334;2023-03-01T02:16:26;101169.69;;;4.47
19061;BMP280;9663;48.996;8.334;2023-03-01T02:18:52;101163.81;;;4.46
19061;BMP280;9663;48.996;8.334;2023-03-01T02:21:44;101157.84;;;4.43
19061;BMP280;9663;48.996;8.334;2023-03-01T02:24:52;101156.81;;;4.38
19061;BMP280;9663;48.996;8.334;2023-03-01T02:27:33;101146.78;;;4.38
19061;BMP280;9663;48.996;8.334;2023-03-01T02:30:02;101150.97;;;4.37
19061;BMP280;9663;48.996;8.334;2023-03-01T02:32:28;101149.25;;;4.36
19061;BMP280;9663;48.996;8.334;2023-03-01T02:34:56;101147.50;;;4.35
19061;BMP280;9663;48.996;8.334;2023-03-01T02:37:23;101143.25;;;4.33
19061;BMP280;9663;48.996;8.334;2023-03-01T02:39:59;101138.19;;;4.31
19061;BMP280;9663;48.996;8.334;2023-03-01T02:42:36;101133.88;;;4.29
19061;BMP280;9663;48.996;8.334;2023-03-01T02:45:05;101133.88;;;4.27
19061;BMP280;9663;48.996;8.334;2023-03-01T02:47:31;101125.41;;;4.25
19061;BMP280;9663;48.996;8.334;2023-03-01T02:49:57;101132.09;;;4.25
19061;BMP280;9663;48.996;8.334;2023-03-01T02:52:48;101128.69;;;4.23
19061;BMP280;9663;48.996;8.334;2023-03-01T02:55:21;101121.94;;;4.22
19061;BMP280;9663;48.996;8.334;2023-03-01T02:57:48;101123.66;;;4.23
19061;BMP280;9663;48.996;8.334;2023-03-01T03:00:24;101122.84;;;4.24
19061;BMP280;9663;48.996;8.334;2023-03-01T03:02:53;101118.75;;;4.26
19061;BMP280;9663;48.996;8.334;2023-03-01T03:05:24;101105.31;;;4.25
19061;BMP280;9663;48.996;8.334;2023-03-01T03:07:50;101115.41;;;4.27
19061;BMP280;9663;48.996;8.334;2023-03-01T03:10:21;101097.78;;;4.25
19061;BMP280;9663;48.996;8.334;2023-03-01T03:12:57;101109.53;;;4.26
19061;BMP280;9663;48.996;8.334;2023-03-01T03:15:25;101112.78;;;4.24
19061;BMP280;9663;48.996;8.334;2023-03-01T03:17:52;101110.28;;;4.24
19061;BMP280;9663;48.996;8.334;2023-03-01T03:20:22;101110.28;;;4.24
19061;BMP280;9663;48.996;8.334;2023-03-01T03:22:51;101101.84;;;4.22
19061;BMP280;9663;48.996;8.334;2023-03-01T03:25:18;101100.22;;;4.23
19061;BMP280;9663;48.996;8.334;2023-03-01T03:27:46;101120.25;;;4.21
19061;BMP280;9663;48.996;8.334;2023-03-01T03:30:18;101110.19;;;4.21
19061;BMP280;9663;48.996;8.334;2023-03-01T03:32:46;101101.69;;;4.18
19061;BMP280;9663;48.996;8.334;2023-03-01T03:35:32;101099.16;;;4.18
19061;BMP280;9663;48.996;8.334;2023-03-01T03:38:03;101094.84;;;4.14
19061;BMP280;9663;48.996;8.334;2023-03-01T03:40:39;101082.19;;;4.11
19061;BMP280;9663;48.996;8.334;2023-03-01T03:43:09;101096.31;;;4.07
19061;BMP280;9663;48.996;8.334;2023-03-01T03:45:36;101097.13;;;4.06
19061;BMP280;9663;48.996;8.334;2023-03-01T03:48:05;101087.75;;;4.02
19061;BMP280;9663;48.996;8.334;2023-03-01T03:50:32;101081.91;;;4.02
19061;BMP280;9663;48.996;8.334;2023-03-01T03:53:01;101080.19;;;4.01
19061;BMP280;9663;48.996;8.334;2023-03-01T03:55:27;101079.34;;;4.00
19061;BMP280;9663;48.996;8.334;2023-03-01T03:57:58;101084.34;;;4.00
19061;BMP280;9663;48.996;8.334;2023-03-01T04:00:28;101076.72;;;3.97
19061;BMP280;9663;48.996;8.334;2023-03-01T04:02:54;101074.16;;;3.96
19061;BMP280;9663;48.996;8.334;2023-03-01T04:05:24;101074.16;;;3.96
19061;BMP280;9663;48.996;8.334;2023-03-01T04:07:50;101068.22;;;3.94
19061;BMP280;9663;48.996;8.334;2023-03-01T04:10:31;101071.53;;;3.93
19061;BMP280;9663;48.996;8.334;2023-03-01T04:12:57;101070.69;;;3.92
19061;BMP280;9663;48.996;8.334;2023-03-01T04:15:25;101073.19;;;3.92
19061;BMP280;9663;48.996;8.334;2023-03-01T04:17:53;101063.03;;;3.89
19061;BMP280;9663;48.996;8.334;2023-03-01T04:20:25;101070.56;;;3.89
19061;BMP280;9663;48.996;8.334;2023-03-01T04:23:09;101069.72;;;3.89
19061;BMP280;9663;48.996;8.334;2023-03-01T04:25:58;101072.13;;;3.86
19061;BMP280;9663;48.996;8.334;2023-03-01T04:28:38;101061.97;;;3.83
19061;BMP280;9663;48.996;8.334;2023-03-01T04:31:12;101065.34;;;3.83
19061;BMP280;9663;48.996;8.334;2023-03-01T04:33:53;101067.00;;;3.83
19061;BMP280;9663;48.996;8.334;2023-03-01T04:36:24;101070.31;;;3.82
19061;BMP280;9663;48.996;8.334;2023-03-01T04:38:50;101058.56;;;3.81
19061;BMP280;9663;48.996;8.334;2023-03-01T04:41:19;101056.00;;;3.80
19061;BMP280;9663;48.996;8.334;2023-03-01T04:43:46;101057.66;;;3.79
19061;BMP280;9663;48.996;8.334;2023-03-01T04:46:16;101056.81;;;3.79
19061;BMP280;9663;48.996;8.334;2023-03-01T04:48:44;101053.38;;;3.77
19061;BMP280;9663;48.996;8.334;2023-03-01T04:51:10;101055.88;;;3.77
19061;BMP280;9663;48.996;8.334;2023-03-01T04:53:39;101062.56;;;3.76
19061;BMP280;9663;48.996;8.334;2023-03-01T04:56:05;101060.00;;;3.75
19061;BMP280;9663;48.996;8.334;2023-03-01T04:58:32;101062.44;;;3.73
19061;BMP280;9663;48.996;8.334;2023-03-01T05:00:58;101063.22;;;3.71
19061;BMP280;9663;48.996;8.334;2023-03-01T05:03:24;101060.59;;;3.68
19061;BMP280;9663;48.996;8.334;2023-03-01T05:05:51;101073.13;;;3.68
19061;BMP280;9663;48.996;8.334;2023-03-01T05:08:18;101073.91;;;3.67
19061;BMP280;9663;48.996;8.334;2023-03-01T05:10:47;101066.34;;;3.65
19061;BMP280;9663;48.996;8.334;2023-03-01T05:13:14;101074.69;;;3.64
19061;BMP280;9663;48.996;8.334;2023-03-01T05:15:47;101066.31;;;3.64
19061;BMP280;9663;48.996;8.334;2023-03-01T05:18:14;101067.16;;;3.64
19061;BMP280;9663;48.996;8.334;2023-03-01T05:20:40;101068.81;;;3.64
19061;BMP280;9663;48.996;8.334;2023-03-01T05:23:05;101070.44;;;3.63
19061;BMP280;9663;48.996;8.334;2023-03-01T05:25:33;101067.09;;;3.63
19061;BMP280;9663;48.996;8.334;2023-03-01T05:28:02;101064.53;;;3.61
19061;BMP280;9663;48.996;8.334;2023-03-01T05:30:34;101067.84;;;3.60
19061;BMP280;9663;48.996;8.334;2023-03-01T05:33:00;101068.66;;;3.59
19061;BMP280;9663;48.996;8.334;2023-03-01T05:35:26;101070.31;;;3.59
19061;BMP280;9663;48.996;8.334;2023-03-01T05:37:52;101076.13;;;3.58
19061;BMP280;9663;48.996;8.334;2023-03-01T05:40:21;101061.00;;;3.56
19061;BMP280;9663;48.996;8.334;2023-03-01T05:42:56;101062.72;;;3.57
19061;BMP280;9663;48.996;8.334;2023-03-01T05:45:24;101067.69;;;3.56
19061;BMP280;9663;48.996;8.334;2023-03-01T05:47:51;101067.69;;;3.56
19061;BMP280;9663;48.996;8.334;2023-03-01T05:50:24;101066.81;;;3.55
19061;BMP280;9663;48.996;8.334;2023-03-01T05:53:03;101060.09;;;3.54
19061;BMP280;9663;48.996;8.334;2023-03-01T05:55:31;101061.78;;;3.54
19061;BMP280;9663;48.996;8.334;2023-03-01T05:58:08;101066.78;;;3.54
19061;BMP280;9663;48.996;8.334;2023-03-01T06:00:35;101060.06;;;3.53
19061;BMP280;9663;48.996;8.334;2023-03-01T06:03:02;101057.53;;;3.53
19061;BMP280;9663;48.996;8.334;2023-03-01T06:05:28;101065.00;;;3.51
19061;BMP280;9663;48.996;8.334;2023-03-01T06:07:55;101067.41;;;3.48
19061;BMP280;9663;48.996;8.334;2023-03-01T06:10:23;101065.78;;;3.49
19061;BMP280;9663;48.996;8.334;2023-03-01T06:12:49;101067.34;;;3.47
19061;BMP280;9663;48.996;8.334;2023-03-01T06:15:16;101064.84;;;3.47
19061;BMP280;9663;48.996;8.334;2023-03-01T06:17:45;101066.44;;;3.45
19061;BMP280;9663;48.996;8.334;2023-03-01T06:20:16;101069.75;;;3.44
19061;BMP280;9663;48.996;8.334;2023-03-01T06:22:43;101063.09;;;3.44
19061;BMP280;9663;48.996;8.334;2023-03-01T06:25:11;101064.00;;;3.46
19061;BMP280;9663;48.996;8.334;2023-03-01T06:27:38;101069.91;;;3.48
19061;BMP280;9663;48.996;8.334;2023-03-01T06:30:06;101069.97;;;3.50
19061;BMP280;9663;48.996;8.334;2023-03-01T06:32:33;101067.50;;;3.51
19061;BMP280;9663;48.996;8.334;2023-03-01T06:34:59;101065.84;;;3.52
19061;BMP280;9663;48.996;8.334;2023-03-01T06:37:27;101065.91;;;3.53
19061;BMP280;9663;48.996;8.334;2023-03-01T06:39:53;101076.84;;;3.55
19061;BMP280;9663;48.996;8.334;2023-03-01T06:42:19;101071.88;;;3.57
19061;BMP280;9663;48.996;8.334;2023-03-01T06:44:44;101064.41;;;3.58
19061;BMP280;9663;48.996;8.334;2023-03-01T06:47:11;101067.88;;;3.62
19061;BMP280;9663;48.996;8.334;2023-03-01T06:49:37;101059.63;;;3.64
19061;BMP280;9663;48.996;8.334;2023-03-01T06:52:03;101063.09;;;3.68
19061;BMP280;9663;48.996;8.334;2023-03-01T06:54:29;101063.22;;;3.71
19061;BMP280;9663;48.996;8.334;2023-03-01T06:56:54;101059.09;;;3.73
19061;BMP280;9663;48.996;8.334;2023-03-01T06:59:20;101052.47;;;3.75
19061;BMP280;9663;48.996;8.334;2023-03-01T07:01:46;101057.72;;;3.81
19061;BMP280;9663;48.996;8.334;2023-03-01T07:04:13;101051.97;;;3.84
19061;BMP280;9663;48.996;8.334;2023-03-01T07:06:39;101034.53;;;3.87
19061;BMP280;9663;48.996;8.334;2023-03-01T07:09:05;101040.59;;;3.94
19061;BMP280;9663;48.996;8.334;2023-03-01T07:11:31;101037.44;;;3.99
19061;BMP280;9663;48.996;8.334;2023-03-01T07:13:56;101038.56;;;4.07
19061;BMP280;9663;48.996;8.334;2023-03-01T07:16:23;101033.75;;;4.13
19061;BMP280;9663;48.996;8.334;2023-03-01T07:18:49;101036.50;;;4.21
19061;BMP280;9663;48.996;8.334;2023-03-01T07:21:15;101027.50;;;4.27
19061;BMP280;9663;48.996;8.334;2023-03-01T07:23:42;101026.06;;;4.33
19061;BMP280;9663;48.996;8.334;2023-03-01T07:26:08;101022.97;;;4.42
19061;BMP280;9663;48.996;8.334;2023-03-01T07:28:34;101029.06;;;4.48
19061;BMP280;9663;48.996;8.334;2023-03-01T07:31:04;101018.44;;;4.57
19061;BMP280;9663;48.996;8.334;2023-03-01T07:33:30;101028.78;;;4.66
19061;BMP280;9663;48.996;8.334;2023-03-01T07:35:58;101024.03;;;4.74
19061;BMP280;9663;48.996;8.334;2023-03-01T07:38:25;101023.44;;;4.83
19061;BMP280;9663;48.996;8.334;2023-03-01T07:40:51;101026.94;;;4.88
19061;BMP280;9663;48.996;8.334;2023-03-01T07:43:17;101017.03;;;4.92
19061;BMP280;9663;48.996;8.334;2023-03-01T07:45:43;101018.06;;;4.99
19061;BMP280;9663;48.996;8.334;2023-03-01T07:48:09;101022.53;;;5.07
19061;BMP280;9663;48.996;8.334;2023-03-01T07:50:35;101015.22;;;5.14
19061;BMP280;9663;48.996;8.334;2023-03-01T07:53:01;101013.72;;;5.21
19061;BMP280;9663;48.996;8.334;2023-03-01T07:55:27;101018.97;;;5.28
19061;BMP280;9663;48.996;8.334;2023-03-01T07:57:53;101016.69;;;5.36
19061;BMP280;9663;48.996;8.334;2023-03-01T08:00:19;101014.44;;;5.46
19061;BMP280;9663;48.996;8.334;2023-03-01T08:02:45;101009.69;;;5.56
19061;BMP280;9663;48.996;8.334;2023-03-01T08:05:10;101005.00;;;5.68
19061;BMP280;9663;48.996;8.334;2023-03-01T08:07:36;101004.47;;;5.78
19061;BMP280;9663;48.996;8.334;2023-03-01T08:10:02;101001.34;;;5.87
19061;BMP280;9663;48.996;8.334;2023-03-01T08:12:28;101004.13;;;5.97
19061;BMP280;9663;48.996;8.334;2023-03-01T08:14:54;100994.22;;;6.03
19061;BMP280;9663;48.996;8.334;2023-03-01T08:17:20;100991.94;;;6.13
19061;BMP280;9663;48.996;8.334;2023-03-01T08:19:46;100990.53;;;6.23
19061;BMP280;9663;48.996;8.334;2023-03-01T08:22:11;100993.31;;;6.35
19061;BMP280;9663;48.996;8.334;2023-03-01T08:24:37;100986.03;;;6.46
19061;BMP280;9663;48.996;8.334;2023-03-01T08:27:03;100984.59;;;6.56
19061;BMP280;9663;48.996;8.334;2023-03-01T08:29:33;100978.97;;;6.67
19061;BMP280;9663;48.996;8.334;2023-03-01T08:31:59;100974.97;;;6.75
19061;BMP280;9663;48.996;8.334;2023-03-01T08:34:27;100972.59;;;6.82
19061;BMP280;9663;48.996;8.334;2023-03-01T08:36:53;100971.94;;;6.91
19061;BMP280;9663;48.996;8.334;2023-03-01T08:39:20;100972.16;;;7.00
19061;BMP280;9663;48.996;8.334;2023-03-01T08:41:47;100969.03;;;7.11
19061;BMP280;9663;48.996;8.334;2023-03-01T08:44:14;100978.47;;;7.21
19061;BMP280;9663;48.996;8.334;2023-03-01T08:46:42;100963.53;;;7.31
19061;BMP280;9663;48.996;8.334;2023-03-01T08:49:15;100966.22;;;7.39
19061;BMP280;9663;48.996;8.334;2023-03-01T08:51:42;100961.31;;;7.46
19061;BMP280;9663;48.996;8.334;2023-03-01T08:54:15;100964.06;;;7.58
19061;BMP280;9663;48.996;8.334;2023-03-01T08:56:42;100951.63;;;7.67
19061;BMP280;9663;48.996;8.334;2023-03-01T08:59:09;100947.59;;;7.78
19061;BMP280;9663;48.996;8.334;2023-03-01T09:01:35;100950.34;;;7.90
19061;BMP280;9663;48.996;8.334;2023-03-01T09:04:02;100953.03;;;8.00
19061;BMP280;9663;48.996;8.334;2023-03-01T09:06:32;100954.97;;;8.13
19061;BMP280;9663;48.996;8.334;2023-03-01T09:09:03;100944.22;;;8.24
19061;BMP280;9663;48.996;8.334;2023-03-01T09:11:30;100943.50;;;8.33
19061;BMP280;9663;48.996;8.334;2023-03-01T09:13:56;100941.06;;;8.40
19061;BMP280;9663;48.996;8.334;2023-03-01T09:16:23;100943.72;;;8.48
19061;BMP280;9663;48.996;8.334;2023-03-01T09:18:53;100937.97;;;8.57
19061;BMP280;9663;48.996;8.334;2023-03-01T09:21:22;100933.94;;;8.68
19061;BMP280;9663;48.996;8.334;2023-03-01T09:23:49;100932.38;;;8.79
19061;BMP280;9663;48.996;8.334;2023-03-01T09:26:21;100927.47;;;8.88
19061;BMP280;9663;48.996;8.334;2023-03-01T09:28:50;100932.63;;;8.97
19061;BMP280;9663;48.996;8.334;2023-03-01T09:31:18;100931.03;;;9.05
19061;BMP280;9663;48.996;8.334;2023-03-01T09:33:47;100932.03;;;9.16
19061;BMP280;9663;48.996;8.334;2023-03-01T09:36:17;100929.56;;;9.23
19061;BMP280;9663;48.996;8.334;2023-03-01T09:38:44;100925.44;;;9.31
19061;BMP280;9663;48.996;8.334;2023-03-01T09:43:52;100925.69;;;9.52
19061;BMP280;9663;48.996;8.334;2023-03-01T09:46:22;100919.84;;;9.60
19061;BMP280;9663;48.996;8.334;2023-03-01T09:48:58;100914.06;;;9.72
19061;BMP280;9663;48.996;8.334;2023-03-01T09:51:31;100915.06;;;9.88
19061;BMP280;9663;48.996;8.334;2023-03-01T09:53:58;100894.94;;;10.03
19061;BMP280;9663;48.996;8.334;2023-03-01T09:56:46;100896.75;;;10.19
19061;BMP280;9663;48.996;8.334;2023-03-01T10:02:28;100896.88;;;10.40
19061;BMP280;9663;48.996;8.334;2023-03-01T10:10:43;100879.22;;;10.52
19061;BMP280;9663;48.996;8.334;2023-03-01T10:14:23;100869.91;;;10.49
19061;BMP280;9663;48.996;8.334;2023-03-01T10:19:30;100867.38;;;10.52
19061;BMP280;9663;48.996;8.334;2023-03-01T10:22:03;100860.66;;;10.59
19061;BMP280;9663;48.996;8.334;2023-03-01T10:24:35;100865.75;;;10.63
19061;BMP280;9663;48.996;8.334;2023-03-01T10:27:29;100854.78;;;10.67
19061;BMP280;9663;48.996;8.334;2023-03-01T10:30:20;100859.03;;;10.74
19061;BMP280;9663;48.996;8.334;2023-03-01T10:32:49;100851.47;;;10.84
19061;BMP280;9663;48.996;8.334;2023-03-01T10:35:24;100847.25;;;10.94
19061;BMP280;9663;48.996;8.334;2023-03-01T10:38:07;100852.38;;;11.00
19061;BMP280;9663;48.996;8.334;2023-03-01T10:40:36;100856.63;;;11.08
19061;BMP280;9663;48.996;8.334;2023-03-01T10:43:04;100843.94;;;11.18
19061;BMP280;9663;48.996;8.334;2023-03-01T10:45:39;100832.97;;;11.30
19061;BMP280;9663;48.996;8.334;2023-03-01T10:50:44;100834.72;;;11.54
19061;BMP280;9663;48.996;8.334;2023-03-01T10:53:27;100831.34;;;11.66
19061;BMP280;9663;48.996;8.334;2023-03-01T10:56:12;100825.41;;;11.74
19061;BMP280;9663;48.996;8.334;2023-03-01T10:59:04;100831.34;;;11.84
19061;BMP280;9663;48.996;8.334;2023-03-01T11:01:35;100822.88;;;11.88
19061;BMP280;9663;48.996;8.334;2023-03-01T11:06:34;100818.66;;;11.93
19061;BMP280;9663;48.996;8.334;2023-03-01T11:09:20;100816.91;;;12.02
19061;BMP280;9663;48.996;8.334;2023-03-01T11:11:52;100816.06;;;12.16
19061;BMP280;9663;48.996;8.334;2023-03-01T11:14:26;100816.03;;;12.31
19061;BMP280;9663;48.996;8.334;2023-03-01T11:17:24;100795.66;;;12.40
19061;BMP280;9663;48.996;8.334;2023-03-01T11:20:20;100804.97;;;12.48
19061;BMP280;9663;48.996;8.334;2023-03-01T11:22:58;100808.28;;;12.58
19061;BMP280;9663;48.996;8.334;2023-03-01T11:25:37;100790.47;;;12.65
19061;BMP280;9663;48.996;8.334;2023-03-01T11:28:07;100785.34;;;12.70
19061;BMP280;9663;48.996;8.334;2023-03-01T11:31:02;100781.91;;;12.79
19061;BMP280;9663;48.996;8.334;2023-03-01T11:33:53;100777.63;;;12.90
19061;BMP280;9663;48.996;8.334;2023-03-01T11:36:41;100761.09;;;13.49
19061;BMP280;9663;48.996;8.334;2023-03-01T11:39:41;100735.63;;;14.95
19061;BMP280;9663;48.996;8.334;2023-03-01T11:42:20;100733.91;;;16.43
19061;BMP280;9663;48.996;8.334;2023-03-01T11:44:55;100714.56;;;17.74
19061;BMP280;9663;48.996;8.334;2023-03-01T11:47:38;100711.81;;;18.98
19061;BMP280;9663;48.996;8.334;2023-03-01T11:50:42;100694.81;;;20.19
19061;BMP280;9663;48.996;8.334;2023-03-01T11:56:28;100672.69;;;21.64
19061;BMP280;9663;48.996;8.334;2023-03-01T12:08:22;100671.03;;;23.28
19061;BMP280;9663;48.996;8.334;2023-03-01T12:10:55;100653.72;;;23.63
19061;BMP280;9663;48.996;8.334;2023-03-01T12:22:51;100635.38;;;24.61
19061;BMP280;9663;48.996;8.334;2023-03-01T12:25:56;100634.38;;;24.79
19061;BMP280;9663;48.996;8.334;2023-03-01T12:28:42;100640.31;;;24.81
19061;BMP280;9663;48.996;8.334;2023-03-01T12:31:47;100623.84;;;24.82
19061;BMP280;9663;48.996;8.334;2023-03-01T12:37:38;100618.47;;;25.30
19061;BMP280;9663;48.996;8.334;2023-03-01T12:40:24;100617.63;;;25.72
19061;BMP280;9663;48.996;8.334;2023-03-01T12:43:09;100615.28;;;26.09
19061;BMP280;9663;48.996;8.334;2023-03-01T12:45:54;100603.28;;;26.20
19061;BMP280;9663;48.996;8.334;2023-03-01T12:51:31;100595.78;;;26.02
19061;BMP280;9663;48.996;8.334;2023-03-01T12:54:05;100599.13;;;26.04
19061;BMP280;9663;48.996;8.334;2023-03-01T12:56:35;100602.81;;;26.14
19061;BMP280;9663;48.996;8.334;2023-03-01T12:59:15;100600.34;;;26.13
19061;BMP280;9663;48.996;8.334;2023-03-01T13:07:37;100593.13;;;25.90
19061;BMP280;9663;48.996;8.334;2023-03-01T13:18:33;100574.91;;;26.18
19061;BMP280;9663;48.996;8.334;2023-03-01T13:26:15;100553.44;;;26.80
19061;BMP280;9663;48.996;8.334;2023-03-01T13:34:01;100555.63;;;27.12
19061;BMP280;9663;48.996;8.334;2023-03-01T13:39:03;100534.06;;;26.72
19061;BMP280;9663;48.996;8.334;2023-03-01T13:46:44;100528.56;;;24.99
19061;BMP280;9663;48.996;8.334;2023-03-01T13:49:16;100536.84;;;23.69
19061;BMP280;9663;48.996;8.334;2023-03-01T13:51:47;100547.72;;;22.41
19061;BMP280;9663;48.996;8.334;2023-03-01T13:54:16;100550.91;;;21.35
19061;BMP280;9663;48.996;8.334;2023-03-01T13:56:44;100548.09;;;20.39
19061;BMP280;9663;48.996;8.334;2023-03-01T13:59:20;100553.06;;;19.54
19061;BMP280;9663;48.996;8.334;2023-03-01T14:01:54;100561.56;;;18.82
19061;BMP280;9663;48.996;8.334;2023-03-01T14:04:33;100565.31;;;18.19
19061;BMP280;9663;48.996;8.334;2023-03-01T14:07:28;100559.41;;;17.57
19061;BMP280;9663;48.996;8.334;2023-03-01T14:10:05;100563.22;;;17.11
19061;BMP280;9663;48.996;8.334;2023-03-01T14:15:35;100553.25;;;16.33
19061;BMP280;9663;48.996;8.334;2023-03-01T14:18:22;100561.63;;;16.00
19061;BMP280;9663;48.996;8.334;2023-03-01T14:20:51;100564.59;;;15.80
19061;BMP280;9663;48.996;8.334;2023-03-01T14:23:21;100567.44;;;15.66
19061;BMP280;9663;48.996;8.334;2023-03-01T14:25:51;100558.34;;;15.52
19061;BMP280;9663;48.996;8.334;2023-03-01T14:28:21;100561.13;;;15.41
19061;BMP280;9663;48.996;8.334;2023-03-01T14:31:00;100553.72;;;15.28
19061;BMP280;9663;48.996;8.334;2023-03-01T14:33:54;100555.63;;;15.14
19061;BMP280;9663;48.996;8.334;2023-03-01T14:36:28;100552.28;;;15.11
19061;BMP280;9663;48.996;8.334;2023-03-01T14:38:54;100551.50;;;15.07
19061;BMP280;9663;48.996;8.334;2023-03-01T14:41:24;100549.84;;;15.05
19061;BMP280;9663;48.996;8.334;2023-03-01T14:43:55;100542.16;;;15.05
19061;BMP280;9663;48.996;8.334;2023-03-01T14:46:32;100544.72;;;15.05
19061;BMP280;9663;48.996;8.334;2023-03-01T14:49:17;100540.41;;;15.08
19061;BMP280;9663;48.996;8.334;2023-03-01T14:52:07;100547.97;;;15.14
19061;BMP280;9663;48.996;8.334;2023-03-01T14:54:44;100547.31;;;15.51
19061;BMP280;9663;48.996;8.334;2023-03-01T14:57:20;100540.16;;;16.45
19061;BMP280;9663;48.996;8.334;2023-03-01T14:59:48;100548.22;;;17.61
19061;BMP280;9663;48.996;8.334;2023-03-01T15:02:19;100535.78;;;18.59
19061;BMP280;9663;48.996;8.334;2023-03-01T15:04:58;100537.50;;;19.57
19061;BMP280;9663;48.996;8.334;2023-03-01T15:07:38;100543.44;;;20.47
19061;BMP280;9663;48.996;8.334;2023-03-01T15:10:12;100541.50;;;21.14
19061;BMP280;9663;48.996;8.334;2023-03-01T15:12:41;100539.19;;;21.48
19061;BMP280;9663;48.996;8.334;2023-03-01T15:18:02;100538.81;;;21.93
19061;BMP280;9663;48.996;8.334;2023-03-01T15:20:29;100554.09;;;22.16
19061;BMP280;9663;48.996;8.334;2023-03-01T15:22:58;100555.06;;;22.32
19061;BMP280;9663;48.996;8.334;2023-03-01T15:25:28;100563.50;;;22.54
19061;BMP280;9663;48.996;8.334;2023-03-01T15:27:57;100554.91;;;22.70
19061;BMP280;9663;48.996;8.334;2023-03-01T15:30:30;100547.41;;;22.82
19061;BMP280;9663;48.996;8.334;2023-03-01T15:35:51;100559.31;;;23.03
19061;BMP280;9663;48.996;8.334;2023-03-01T15:38:52;100557.59;;;22.85
19061;BMP280;9663;48.996;8.334;2023-03-01T15:41:36;100565.03;;;22.74
19061;BMP280;9663;48.996;8.334;2023-03-01T15:44:37;100567.00;;;22.53
19061;BMP280;9663;48.996;8.334;2023-03-01T15:47:29;100557.78;;;22.29
19061;BMP280;9663;48.996;8.334;2023-03-01T15:49:57;100555.56;;;22.03
19061;BMP280;9663;48.996;8.334;2023-03-01T15:52:34;100561.88;;;21.60
19061;BMP280;9663;48.996;8.334;2023-03-01T15:55:16;100566.53;;;21.12
19061;BMP280;9663;48.996;8.334;2023-03-01T15:57:42;100561.28;;;20.74
19061;BMP280;9663;48.996;8.334;2023-03-01T16:00:13;100567.69;;;20.43
19061;BMP280;9663;48.996;8.334;2023-03-01T16:02:40;100562.47;;;20.23
19061;BMP280;9663;48.996;8.334;2023-03-01T16:05:21;100566.75;;;20.02
19061;BMP280;9663;48.996;8.334;2023-03-01T16:07:48;100560.22;;;19.69
19061;BMP280;9663;48.996;8.334;2023-03-01T16:10:15;100544.34;;;19.34
19061;BMP280;9663;48.996;8.334;2023-03-01T16:12:41;100550.06;;;18.93